SHMÚ vydal meteorologické výstrahy na Wind Display warnings

TAF

Aerodrome Forecast TAF

TAF description (Slovak)

29.03.2020 - 08:00 UTC

TAF LZSL 290800Z 2909/2918 VRB02KT 9999 FEW040
    BECMG 2911/2913 34011KT
    TEMPO 2912/2916 -SHRA BKN030=
TAF LZPP 290800Z 2909/2918 35015KT CAVOK
    TEMPO 2912/2916 9999 SCT045=
TAF LZZI 290800Z 2909/2918 08006KT CAVOK
    BECMG 2910/2912 02013KT 9999 BKN050=

29.03.2020 - 05:00 UTC

TAF AMD LZSL 290706Z 2907/2915 VRB02KT 0200 FZFG BKN002
    BECMG 2907/2909 9999 FEW040
    BECMG 2909/2911 36010KT
    TEMPO 2912/2915 9999 -SHRA BKN030=

29.03.2020 - 03:00 UTC

TAF AMD LZSL 290528Z 2905/2912 VRB02KT 0200 FZFG BKN001
    BECMG 2906/2908 9999 FEW004 SCT035
    BECMG 2909/2911 36010KT=

29.03.2020 - 05:00 UTC

TAF LZIB 290500Z 2906/3006 30012KT CAVOK
    PROB40 TEMPO 2906/2916 31015G25KT
    PROB30 TEMPO 2923/3006 9999 -SHRA BKN033=
TAF LZKZ 290500Z 2906/3006 VRB02KT CAVOK
    BECMG 2908/2910 03010KT
    BECMG 2910/2912 35015KT 9999 SCT045 BKN080=
TAF LZTT 290500Z 2906/3006 26008KT 9999 FEW050
    PROB30 TEMPO 2906/2908 VRB02KT 4000 MIFG SCT005
    BECMG 2910/2912 04008KT SCT030 BKN070=

29.03.2020 - 05:00 UTC

TAF LZSL 290500Z 2906/2915 VRB02KT 0100 FZFG OVC001
    BECMG 2907/2909 9999 FEW004 SCT040
    BECMG 2909/2911 36010KT
    TEMPO 2912/2915 9999 SHRA BKN030=
TAF LZPP 290500Z 2906/2915 35011KT CAVOK
    TEMPO 2912/2915 9999 SCT040=
TAF LZZI 290500Z 2906/2915 VRB02KT CAVOK
    BECMG 2910/2912 36010KT
    TEMPO 2912/2915 9999 BKN045=

29.03.2020 - 03:00 UTC

TAF COR LZSL 290200Z 2903/2912 VRB02KT 0100 FZFG OVC001
    BECMG 2906/2908 9999 FEW004 SCT035
    BECMG 2909/2911 36010KT=

29.03.2020 - 03:00 UTC

TAF COR LZSL 290143Z 2903/2912 VRB02KT 0100 FZFG OVC001
    BECMG 2906/2908 9999 FEW004 SCT035
    BECMG 2909/2911 36010KT=

29.03.2020 - 03:00 UTC

TAF LZSL 290200Z 2903/2912 VRB02KT CAVOK
    BECMG 2909/2911 36012KT=
TAF LZZI 290200Z 2903/2912 VRB02KT CAVOK
    BECMG 2909/2911 36008KT 9999 SCT035=

29.03.2020 - 23:00 UTC

TAF LZSL 292300Z 0100/0109 05004KT 9999 SCT050
    BECMG 0102/0104 35004KT=
TAF LZZI 292300Z 0100/0109 13005KT 9999 BKN055
    BECMG 0100/0102 24004KT=

skok na menu ↑


skok na začiatok stránky ↑